createdAt,value
2022-08-28T00:00:46.611Z,19.12
2022-08-28T00:03:17.523Z,20.05
2022-08-28T00:05:46.700Z,19.65
2022-08-28T00:08:17.143Z,19.66
2022-08-28T00:10:46.673Z,19.61
2022-08-28T00:13:18.975Z,19.18
2022-08-28T00:15:50.466Z,18.98
2022-08-28T00:18:20.717Z,18.70
2022-08-28T00:20:51.014Z,18.95
2022-08-28T00:23:20.507Z,18.68
2022-08-28T00:25:49.164Z,19.86
2022-08-28T00:28:24.232Z,20.14
2022-08-28T00:30:55.279Z,19.69
2022-08-28T00:33:28.314Z,18.84
2022-08-28T00:35:58.380Z,19.11
2022-08-28T00:38:28.483Z,19.32
2022-08-28T00:41:00.386Z,20.09
2022-08-28T00:43:36.857Z,19.81
2022-08-28T00:46:11.118Z,20.53
2022-08-28T00:48:41.119Z,19.88
2022-08-28T00:51:28.551Z,19.55
2022-08-28T00:53:59.176Z,19.37
2022-08-28T00:56:29.057Z,18.96
2022-08-28T00:58:59.938Z,18.71
2022-08-28T01:01:28.722Z,18.27
2022-08-28T01:03:58.750Z,18.84
2022-08-28T01:06:27.382Z,18.59
2022-08-28T01:08:56.066Z,18.54
2022-08-28T01:11:29.096Z,19.30
2022-08-28T01:14:01.961Z,19.04
2022-08-28T01:16:34.007Z,18.38
2022-08-28T01:19:08.103Z,18.37
2022-08-28T01:21:46.735Z,19.28
2022-08-28T01:24:19.606Z,19.40
2022-08-28T01:26:48.387Z,19.80
2022-08-28T01:29:17.422Z,18.67
2022-08-28T01:31:48.529Z,19.02
2022-08-28T01:34:17.158Z,17.95
2022-08-28T01:36:48.551Z,18.35
2022-08-28T01:39:21.282Z,18.88
2022-08-28T01:41:52.961Z,18.59
2022-08-28T01:44:24.857Z,18.44
2022-08-28T01:46:55.508Z,19.52
2022-08-28T01:49:24.789Z,18.93
2022-08-28T01:51:54.746Z,18.60
2022-08-28T01:54:28.813Z,18.06
2022-08-28T01:56:57.550Z,17.44
2022-08-28T01:59:26.177Z,18.02
2022-08-28T02:01:55.458Z,18.44
2022-08-28T02:04:32.244Z,17.95
2022-08-28T02:07:01.155Z,18.67
2022-08-28T02:09:32.027Z,18.48
2022-08-28T02:12:00.725Z,18.39
2022-08-28T02:14:29.362Z,18.43
2022-08-28T02:16:58.762Z,18.19
2022-08-28T02:19:27.344Z,18.56
2022-08-28T02:21:55.961Z,18.38
2022-08-28T02:24:24.730Z,17.82
2022-08-28T02:26:54.758Z,18.87
2022-08-28T02:29:23.627Z,19.86
2022-08-28T02:31:52.313Z,17.78
2022-08-28T02:34:21.141Z,17.98
2022-08-28T02:36:50.071Z,18.68
2022-08-28T02:39:18.681Z,19.16
2022-08-28T02:41:47.283Z,18.36
2022-08-28T02:44:17.398Z,18.81
2022-08-28T02:46:46.292Z,18.50
2022-08-28T02:49:14.868Z,18.79
2022-08-28T02:51:44.178Z,18.92
2022-08-28T02:54:12.774Z,17.89
2022-08-28T02:56:43.450Z,17.64
2022-08-28T02:59:13.478Z,17.20
2022-08-28T03:01:43.458Z,18.60
2022-08-28T03:04:12.070Z,17.95
2022-08-28T03:06:40.988Z,17.84
2022-08-28T03:09:09.559Z,18.31
2022-08-28T03:11:38.227Z,17.70
2022-08-28T03:14:06.876Z,18.32
2022-08-28T03:16:35.541Z,17.63
2022-08-28T03:19:05.577Z,17.83
2022-08-28T03:21:34.204Z,17.43
2022-08-28T03:24:02.913Z,17.43
2022-08-28T03:26:31.959Z,18.03
2022-08-28T03:29:00.531Z,18.05
2022-08-28T03:31:33.340Z,18.30
2022-08-28T03:34:04.743Z,18.21
2022-08-28T03:36:34.290Z,19.28
2022-08-28T03:39:06.471Z,19.60
2022-08-28T03:41:35.711Z,19.39
2022-08-28T03:44:05.096Z,18.88
2022-08-28T03:46:34.615Z,19.35
2022-08-28T03:49:06.006Z,18.32
2022-08-28T03:51:35.920Z,17.99
2022-08-28T03:54:05.463Z,17.57
2022-08-28T03:56:34.487Z,18.14
2022-08-28T03:59:05.476Z,18.19
2022-08-28T04:01:34.643Z,17.34
2022-08-28T04:04:03.468Z,17.80
2022-08-28T04:06:33.496Z,18.05
2022-08-28T04:09:04.970Z,17.40
2022-08-28T04:11:38.206Z,18.63
2022-08-28T04:14:07.118Z,17.70
2022-08-28T04:16:35.795Z,18.21
2022-08-28T04:19:04.680Z,19.13
2022-08-28T04:21:34.667Z,17.57
2022-08-28T04:24:06.719Z,18.63
2022-08-28T04:26:37.960Z,18.84
2022-08-28T04:29:06.996Z,18.72
2022-08-28T04:31:36.340Z,17.56
2022-08-28T04:34:08.718Z,18.72
2022-08-28T04:36:39.336Z,19.17
2022-08-28T04:39:10.308Z,18.39
2022-08-28T04:41:39.199Z,19.38
2022-08-28T04:44:08.313Z,18.65
2022-08-28T04:46:37.591Z,18.31
2022-08-28T04:49:06.932Z,17.84
2022-08-28T04:51:41.510Z,17.02
2022-08-28T04:54:11.907Z,17.51
2022-08-28T04:56:42.100Z,18.69
2022-08-28T04:59:11.738Z,18.57
2022-08-28T05:01:42.679Z,17.47
2022-08-28T05:04:13.108Z,17.58
2022-08-28T05:06:46.264Z,17.77
2022-08-28T05:09:18.795Z,17.39
2022-08-28T05:11:48.174Z,16.82
2022-08-28T05:14:17.842Z,18.01
2022-08-28T05:16:49.210Z,18.15
2022-08-28T05:19:19.525Z,18.62
2022-08-28T05:21:49.809Z,17.96
2022-08-28T05:24:18.718Z,17.57
2022-08-28T05:26:48.062Z,17.92
2022-08-28T05:29:17.888Z,17.36
2022-08-28T05:31:47.759Z,18.45
2022-08-28T05:34:17.823Z,18.99
2022-08-28T05:36:46.397Z,18.32
2022-08-28T05:39:17.616Z,17.75
2022-08-28T05:41:47.714Z,17.90
2022-08-28T05:44:18.222Z,18.74
2022-08-28T05:46:48.564Z,18.42
2022-08-28T05:49:19.522Z,17.86
2022-08-28T05:51:49.567Z,18.71
2022-08-28T05:54:19.601Z,19.36
2022-08-28T05:56:48.474Z,18.54
2022-08-28T05:59:17.934Z,18.66
2022-08-28T06:01:48.647Z,18.28
2022-08-28T06:04:23.461Z,19.21
2022-08-28T06:06:52.121Z,19.07
2022-08-28T06:09:28.994Z,20.10
2022-08-28T06:11:59.846Z,20.18
2022-08-28T06:14:29.803Z,19.00
2022-08-28T06:16:59.737Z,19.18
2022-08-28T06:19:30.814Z,19.49
2022-08-28T06:22:01.566Z,19.45
2022-08-28T06:24:37.932Z,19.20
2022-08-28T06:27:07.000Z,19.63
2022-08-28T06:29:35.659Z,18.33
2022-08-28T06:32:05.581Z,18.81
2022-08-28T06:34:34.264Z,21.00
2022-08-28T06:37:02.830Z,19.72
2022-08-28T06:39:31.479Z,20.35
2022-08-28T06:42:01.399Z,20.15
2022-08-28T06:44:32.170Z,20.10
2022-08-28T06:47:00.820Z,19.79
2022-08-28T06:49:29.478Z,20.14
2022-08-28T06:51:58.072Z,19.49
2022-08-28T06:54:26.785Z,21.05
2022-08-28T06:56:55.369Z,21.52
2022-08-28T06:59:25.316Z,20.14
2022-08-28T07:01:54.487Z,21.18
2022-08-28T07:04:23.257Z,21.41
2022-08-28T07:06:54.483Z,21.69
2022-08-28T07:09:24.125Z,22.05
2022-08-28T07:11:52.934Z,22.28
2022-08-28T07:14:21.565Z,20.76
2022-08-28T07:16:51.868Z,21.09
2022-08-28T07:19:20.614Z,21.88
2022-08-28T07:21:49.167Z,21.65
2022-08-28T07:24:19.137Z,20.93
2022-08-28T07:26:48.598Z,20.67
2022-08-28T07:29:17.422Z,21.58
2022-08-28T07:31:49.160Z,21.20
2022-08-28T07:34:21.170Z,20.56
2022-08-28T07:36:51.924Z,20.79
2022-08-28T07:39:20.537Z,21.60
2022-08-28T07:41:50.350Z,21.60
2022-08-28T07:44:36.553Z,21.24
2022-08-28T07:47:06.980Z,21.77
2022-08-28T07:49:40.116Z,22.02
2022-08-28T07:52:09.788Z,21.75
2022-08-28T07:54:40.576Z,21.97
2022-08-28T07:57:10.981Z,21.19
2022-08-28T07:59:42.966Z,22.05
2022-08-28T08:02:11.961Z,22.53
2022-08-28T08:04:42.589Z,23.05
2022-08-28T08:07:12.931Z,21.91
2022-08-28T08:09:43.150Z,21.27
2022-08-28T08:12:13.545Z,20.53
2022-08-28T08:14:43.753Z,21.77
2022-08-28T08:17:13.098Z,21.68
2022-08-28T08:19:43.072Z,21.55
2022-08-28T08:22:11.641Z,21.40
2022-08-28T08:24:40.269Z,23.44
2022-08-28T08:27:10.523Z,23.60
2022-08-28T08:29:39.848Z,22.59
2022-08-28T08:32:11.609Z,21.59
2022-08-28T08:34:43.659Z,22.03
2022-08-28T08:37:13.615Z,21.20
2022-08-28T08:39:44.041Z,21.51
2022-08-28T08:42:23.115Z,23.15
2022-08-28T08:44:53.813Z,23.03
2022-08-28T08:47:27.614Z,23.15
2022-08-28T08:50:01.031Z,22.77
2022-08-28T08:52:39.046Z,23.56
2022-08-28T08:55:20.475Z,23.41
2022-08-28T08:57:54.468Z,24.11
2022-08-28T09:00:23.303Z,24.34
2022-08-28T09:03:00.114Z,23.87
2022-08-28T09:05:45.286Z,23.38
2022-08-28T09:08:28.519Z,23.57
2022-08-28T09:11:03.989Z,23.40
2022-08-28T09:13:42.332Z,22.83
2022-08-28T09:16:22.343Z,23.94
2022-08-28T09:18:52.343Z,22.31
2022-08-28T09:21:31.974Z,23.14
2022-08-28T09:24:05.912Z,23.00
2022-08-28T09:26:40.871Z,24.09
2022-08-28T09:29:17.745Z,22.78
2022-08-28T09:31:46.687Z,23.16
2022-08-28T09:34:22.885Z,23.87
2022-08-28T09:36:54.002Z,22.98
2022-08-28T09:39:25.150Z,23.63
2022-08-28T09:42:23.253Z,23.94
2022-08-28T09:44:56.534Z,23.86
2022-08-28T09:47:46.011Z,24.22
2022-08-28T09:50:35.226Z,24.29
2022-08-28T09:53:23.005Z,24.19
2022-08-28T09:55:59.174Z,24.72
2022-08-28T09:58:34.859Z,24.23
2022-08-28T10:01:22.154Z,23.53
2022-08-28T10:04:02.612Z,24.07
2022-08-28T10:06:37.082Z,24.06
2022-08-28T10:09:14.522Z,24.12
2022-08-28T10:11:51.244Z,24.16
2022-08-28T10:14:32.821Z,23.42
2022-08-28T10:17:11.104Z,23.26
2022-08-28T10:19:50.967Z,23.58
2022-08-28T10:22:32.928Z,24.39
2022-08-28T10:25:14.666Z,24.20
2022-08-28T10:27:55.151Z,24.99
2022-08-28T10:30:25.675Z,22.95
2022-08-28T10:33:21.421Z,23.64
2022-08-28T10:35:57.251Z,23.77
2022-08-28T10:38:37.277Z,24.03
2022-08-28T10:41:12.158Z,25.18
2022-08-28T10:43:48.134Z,24.91
2022-08-28T10:46:23.150Z,24.80
2022-08-28T10:49:00.082Z,24.94
2022-08-28T10:51:36.304Z,25.21
2022-08-28T10:54:19.177Z,24.93
2022-08-28T10:56:56.897Z,25.08
2022-08-28T10:59:27.509Z,25.15
2022-08-28T11:01:56.558Z,25.21
2022-08-28T11:04:29.309Z,24.79
2022-08-28T11:07:02.244Z,25.11
2022-08-28T11:09:34.805Z,25.21
2022-08-28T11:12:09.748Z,24.11
2022-08-28T11:14:47.757Z,23.71
2022-08-28T11:17:40.203Z,24.66
2022-08-28T11:20:16.544Z,24.59
2022-08-28T11:22:48.641Z,24.81
2022-08-28T11:25:26.465Z,25.17
2022-08-28T11:28:43.266Z,24.72
2022-08-28T11:31:37.636Z,24.61
2022-08-28T11:34:06.360Z,24.44
2022-08-28T11:37:02.858Z,23.80
2022-08-28T11:39:31.723Z,24.56
2022-08-28T11:42:37.700Z,24.30
2022-08-28T11:45:08.384Z,23.22
2022-08-28T11:47:56.346Z,23.32
2022-08-28T11:50:32.197Z,23.20
2022-08-28T11:53:36.072Z,23.55
2022-08-28T11:56:30.965Z,24.58
2022-08-28T11:59:25.376Z,24.82
2022-08-28T12:02:37.309Z,24.89
2022-08-28T12:05:09.769Z,25.47
2022-08-28T12:07:40.300Z,25.29
2022-08-28T12:10:58.539Z,24.55
2022-08-28T12:13:50.185Z,24.10
2022-08-28T12:16:19.738Z,24.88
2022-08-28T12:19:01.295Z,24.22
2022-08-28T12:21:36.524Z,24.26
2022-08-28T12:24:14.688Z,24.37
2022-08-28T12:26:48.807Z,24.57
2022-08-28T12:29:32.941Z,24.49
2022-08-28T12:32:28.662Z,24.69
2022-08-28T12:35:19.349Z,24.83
2022-08-28T12:38:02.626Z,25.03
2022-08-28T12:40:47.461Z,25.12
2022-08-28T12:43:29.102Z,24.98
2022-08-28T12:46:00.712Z,24.22
2022-08-28T12:48:32.396Z,22.93
2022-08-28T12:51:04.819Z,24.62
2022-08-28T12:53:45.032Z,24.93
2022-08-28T12:56:15.819Z,24.56
2022-08-28T12:58:44.976Z,25.04
2022-08-28T13:01:24.327Z,25.10
2022-08-28T13:03:55.774Z,25.40
2022-08-28T13:06:26.557Z,25.00
2022-08-28T13:09:02.523Z,25.17
2022-08-28T13:11:35.322Z,25.63
2022-08-28T13:14:05.488Z,25.55
2022-08-28T13:16:41.158Z,24.86
2022-08-28T13:19:25.178Z,24.42
2022-08-28T13:21:58.898Z,24.51
2022-08-28T13:24:43.883Z,24.70
2022-08-28T13:27:22.931Z,25.32
2022-08-28T13:29:59.997Z,24.69
2022-08-28T13:32:31.368Z,24.68
2022-08-28T13:35:29.194Z,25.27
2022-08-28T13:37:59.905Z,25.93
2022-08-28T13:43:24.243Z,25.04
2022-08-28T13:45:53.395Z,24.64
2022-08-28T13:48:24.620Z,24.85
2022-08-28T13:50:55.998Z,24.23
2022-08-28T13:53:25.344Z,24.47
2022-08-28T13:55:55.875Z,24.90
2022-08-28T13:58:24.723Z,25.36
2022-08-28T14:00:53.935Z,25.06
2022-08-28T14:03:38.260Z,25.15
2022-08-28T14:06:11.331Z,24.82
2022-08-28T14:08:40.845Z,25.06
2022-08-28T14:11:12.777Z,25.53
2022-08-28T14:13:47.012Z,25.38
2022-08-28T14:16:25.576Z,25.35
2022-08-28T14:18:54.368Z,24.98
2022-08-28T14:21:24.502Z,25.45
2022-08-28T14:23:53.435Z,24.71
2022-08-28T14:26:23.391Z,25.19
2022-08-28T14:28:51.962Z,24.51
2022-08-28T14:31:20.645Z,25.31
2022-08-28T14:33:55.474Z,25.94
2022-08-28T14:36:26.621Z,24.82
2022-08-28T14:38:56.513Z,24.83
2022-08-28T14:41:27.434Z,24.42
2022-08-28T14:43:57.180Z,25.33
2022-08-28T14:46:28.641Z,25.20
2022-08-28T14:48:58.455Z,25.53
2022-08-28T14:51:27.534Z,24.80
2022-08-28T14:53:56.106Z,25.22
2022-08-28T14:56:26.102Z,24.90
2022-08-28T14:58:54.701Z,24.78
2022-08-28T15:01:24.525Z,25.07
2022-08-28T15:03:55.220Z,25.23
2022-08-28T15:06:24.057Z,25.50
2022-08-28T15:08:54.064Z,24.67
2022-08-28T15:11:26.110Z,25.31
2022-08-28T15:13:55.625Z,25.10
2022-08-28T15:16:29.862Z,25.19
2022-08-28T15:19:00.092Z,24.60
2022-08-28T15:21:32.230Z,24.37
2022-08-28T15:24:02.822Z,23.89
2022-08-28T15:26:33.476Z,25.11
2022-08-28T15:29:03.315Z,24.60
2022-08-28T15:31:33.283Z,24.52
2022-08-28T15:34:06.373Z,24.89
2022-08-28T15:36:42.477Z,25.11
2022-08-28T15:39:29.100Z,24.68
2022-08-28T15:42:00.474Z,24.80
2022-08-28T15:44:29.476Z,25.26
2022-08-28T15:47:01.080Z,25.40
2022-08-28T15:49:32.262Z,24.77
2022-08-28T15:52:05.452Z,25.01
2022-08-28T15:54:34.019Z,25.09
2022-08-28T15:57:03.999Z,24.45
2022-08-28T15:59:38.046Z,25.03
2022-08-28T16:02:18.150Z,24.50
2022-08-28T16:04:46.826Z,24.68
2022-08-28T16:07:15.415Z,24.60
2022-08-28T16:09:43.982Z,24.97
2022-08-28T16:12:14.025Z,24.34
2022-08-28T16:14:42.632Z,24.14
2022-08-28T16:17:11.769Z,24.36
2022-08-28T16:19:40.874Z,24.07
2022-08-28T16:22:10.162Z,24.62
2022-08-28T16:24:38.976Z,24.16
2022-08-28T16:27:10.695Z,23.65
2022-08-28T16:29:45.064Z,24.11
2022-08-28T16:32:13.846Z,23.68
2022-08-28T16:34:44.807Z,24.66
2022-08-28T16:37:16.639Z,23.48
2022-08-28T16:39:49.620Z,23.60
2022-08-28T16:42:18.214Z,23.49
2022-08-28T16:44:48.160Z,23.24
2022-08-28T16:47:17.030Z,23.48
2022-08-28T16:49:45.596Z,24.26
2022-08-28T16:52:14.208Z,24.75
2022-08-28T16:54:48.419Z,24.50
2022-08-28T16:57:17.557Z,24.51
2022-08-28T16:59:47.912Z,23.87
2022-08-28T17:02:26.601Z,23.63
2022-08-28T17:04:58.149Z,23.53
2022-08-28T17:07:27.222Z,24.23
2022-08-28T17:09:55.830Z,23.71
2022-08-28T17:12:24.605Z,23.58
2022-08-28T17:14:56.406Z,23.03
2022-08-28T17:17:25.421Z,23.75
2022-08-28T17:19:54.105Z,23.70
2022-08-28T17:22:33.536Z,23.59
2022-08-28T17:25:03.984Z,23.42
2022-08-28T17:27:33.161Z,23.44
2022-08-28T17:30:04.926Z,23.19
2022-08-28T17:32:33.879Z,23.19
2022-08-28T17:35:03.290Z,22.86
2022-08-28T17:37:31.931Z,22.97
2022-08-28T17:40:00.561Z,23.47
2022-08-28T17:42:29.229Z,22.15
2022-08-28T17:44:57.801Z,22.20
2022-08-28T17:47:31.007Z,22.26
2022-08-28T17:50:00.182Z,22.27
2022-08-28T17:52:29.596Z,21.95
2022-08-28T17:54:58.251Z,23.12
2022-08-28T17:57:28.758Z,23.22
2022-08-28T17:59:57.747Z,22.50
2022-08-28T18:02:28.918Z,22.15
2022-08-28T18:04:57.603Z,22.46
2022-08-28T18:07:26.301Z,22.29
2022-08-28T18:09:54.939Z,22.92
2022-08-28T18:12:23.573Z,22.06
2022-08-28T18:14:53.159Z,21.98
2022-08-28T18:17:21.825Z,22.21
2022-08-28T18:19:51.890Z,21.87
2022-08-28T18:22:20.448Z,21.80
2022-08-28T18:24:53.594Z,21.70
2022-08-28T18:27:22.753Z,21.66
2022-08-28T18:29:51.871Z,22.15
2022-08-28T18:32:20.693Z,22.35
2022-08-28T18:34:50.655Z,23.38
2022-08-28T18:37:19.496Z,22.49
2022-08-28T18:39:48.038Z,21.54
2022-08-28T18:42:20.257Z,21.67
2022-08-28T18:44:48.830Z,22.12
2022-08-28T18:47:17.910Z,21.82
2022-08-28T18:49:46.599Z,21.67
2022-08-28T18:52:16.564Z,21.36
2022-08-28T18:54:45.135Z,21.53
2022-08-28T18:57:15.165Z,21.44
2022-08-28T18:59:43.835Z,21.39
2022-08-28T19:02:13.598Z,22.05
2022-08-28T19:04:42.733Z,21.50
2022-08-28T19:07:11.488Z,21.06
2022-08-28T19:09:41.964Z,21.40
2022-08-28T19:12:10.715Z,21.14
2022-08-28T19:14:39.316Z,21.08
2022-08-28T19:17:07.890Z,21.06
2022-08-28T19:19:36.947Z,21.22
2022-08-28T19:22:05.603Z,20.75
2022-08-28T19:24:34.708Z,20.51
2022-08-28T19:27:04.724Z,21.38
2022-08-28T19:29:33.926Z,21.72
2022-08-28T19:32:02.701Z,21.39
2022-08-28T19:34:32.232Z,21.45
2022-08-28T19:37:01.609Z,21.23
2022-08-28T19:39:30.778Z,21.18
2022-08-28T19:41:59.406Z,20.71
2022-08-28T19:44:29.373Z,20.66
2022-08-28T19:46:57.957Z,20.42
2022-08-28T19:49:26.644Z,21.18
2022-08-28T19:51:55.413Z,21.95
2022-08-28T19:54:24.000Z,21.96
2022-08-28T19:56:52.605Z,21.40
2022-08-28T19:59:24.001Z,20.75
2022-08-28T20:01:56.993Z,21.52
2022-08-28T20:04:26.064Z,21.74
2022-08-28T20:06:54.814Z,21.57
2022-08-28T20:09:23.959Z,20.64
2022-08-28T20:11:52.579Z,19.78
2022-08-28T20:14:21.935Z,19.83
2022-08-28T20:16:52.299Z,19.80
2022-08-28T20:19:23.454Z,19.44
2022-08-28T20:21:52.148Z,19.91
2022-08-28T20:24:24.093Z,20.33
2022-08-28T20:26:53.952Z,19.62
2022-08-28T20:29:24.228Z,20.07
2022-08-28T20:31:53.184Z,20.50
2022-08-28T20:34:23.273Z,19.33
2022-08-28T20:36:52.358Z,18.72
2022-08-28T20:39:21.460Z,19.10
2022-08-28T20:41:50.418Z,19.10
2022-08-28T20:44:21.269Z,19.25
2022-08-28T20:46:51.376Z,19.97
2022-08-28T20:49:22.974Z,19.72
2022-08-28T20:51:56.901Z,19.62
2022-08-28T20:54:29.703Z,20.59
2022-08-28T20:57:00.224Z,20.03
2022-08-28T20:59:37.188Z,19.16
2022-08-28T21:02:11.194Z,18.96
2022-08-28T21:04:42.943Z,19.78
2022-08-28T21:07:12.552Z,20.44
2022-08-28T21:10:06.137Z,20.39
2022-08-28T21:12:30.115Z,19.80
2022-08-28T21:14:58.768Z,18.87
2022-08-28T21:17:30.127Z,19.72
2022-08-28T21:20:02.777Z,20.36
2022-08-28T21:22:33.049Z,20.70
2022-08-28T21:25:04.850Z,21.19
2022-08-28T21:27:33.801Z,20.26
2022-08-28T21:30:03.141Z,20.71
2022-08-28T21:32:33.958Z,21.41
2022-08-28T21:35:05.401Z,21.17
2022-08-28T21:37:34.210Z,20.75
2022-08-28T21:40:03.890Z,21.21
2022-08-28T21:42:32.585Z,20.77
2022-08-28T21:45:01.678Z,21.69
2022-08-28T21:47:31.871Z,21.90
2022-08-28T21:50:00.582Z,21.71
2022-08-28T21:52:32.570Z,22.06
2022-08-28T21:55:02.860Z,21.49
2022-08-28T21:57:32.207Z,22.23
2022-08-28T22:00:00.803Z,22.32
2022-08-28T22:02:29.644Z,21.84
2022-08-28T22:04:58.289Z,22.29
2022-08-28T22:07:26.949Z,21.83
2022-08-28T22:09:56.968Z,21.56
2022-08-28T22:12:25.616Z,22.30
2022-08-28T22:14:54.262Z,22.70
2022-08-28T22:17:22.878Z,21.18
2022-08-28T22:19:51.481Z,21.77
2022-08-28T22:22:37.934Z,22.22
2022-08-28T22:25:09.077Z,22.32
2022-08-28T22:27:37.716Z,21.74
2022-08-28T22:30:06.922Z,21.95
2022-08-28T22:32:35.573Z,22.27
2022-08-28T22:35:04.307Z,22.26
2022-08-28T22:37:33.076Z,22.53
2022-08-28T22:40:01.826Z,22.39
2022-08-28T22:42:33.974Z,22.34
2022-08-28T22:45:02.931Z,21.37
2022-08-28T22:47:32.026Z,21.41
2022-08-28T22:50:01.135Z,21.58
2022-08-28T22:52:30.022Z,21.19
2022-08-28T22:54:58.841Z,21.58
2022-08-28T22:57:27.917Z,21.18
2022-08-28T23:00:01.458Z,21.41
2022-08-28T23:02:30.432Z,21.58
2022-08-28T23:04:59.058Z,21.19
2022-08-28T23:07:27.678Z,21.28
2022-08-28T23:09:56.305Z,21.18
2022-08-28T23:12:25.193Z,20.62
2022-08-28T23:14:53.812Z,21.54
2022-08-28T23:17:24.341Z,21.69
2022-08-28T23:19:53.459Z,21.33
2022-08-28T23:22:22.040Z,20.63
2022-08-28T23:24:50.717Z,21.46
2022-08-28T23:27:35.757Z,21.88
2022-08-28T23:30:07.286Z,22.28
2022-08-28T23:32:37.563Z,22.04
2022-08-28T23:35:09.647Z,22.05
2022-08-28T23:37:39.475Z,21.69
2022-08-28T23:40:11.270Z,21.57
2022-08-28T23:42:41.013Z,21.01
2022-08-28T23:45:10.506Z,20.17
2022-08-28T23:47:40.870Z,21.24
2022-08-28T23:50:12.711Z,21.39
2022-08-28T23:52:43.158Z,21.52
2022-08-28T23:55:14.432Z,22.01
2022-08-28T23:57:43.163Z,22.23
